Terminal Aerodrome Forecast
Issued by NWS Omaha/Valley, NE

Home | Current Version | Previous Version | Text Only | Print | Product List | Glossary On
Versions: 1 2 3 4 5 6 7 8 9 10 11 12 13 14 15 16 17 18 19 20 21 22 23 24 25
000
FTUS43 KOAX 202320
TAFOMA
TAF
KOMA 202320Z 2100/2124 12005KT 3SM -RA BR OVC005
     FM210600 14004KT 1SM BR OVC003
     FM211500 21004KT 3SM BR OVC008
     FM211800 23005KT P6SM OVC015
     FM212100 24006KT P6SM OVC040=

USA.gov is the U.S. government's official web portal to all federal, state and local government web resources and services.